Terminal Aerodrome Forecast
Issued by NWS

Home | Current Version | Previous Version | Text Only | Print | Product List | Glossary On
Versions: 1 2 3 4 5 6 7 8 9 10 11 12 13 14 15 16 17 18 19 20
760
FTUS46 KSEW 200908 AAA
TAFCLM
TAF AMD
KCLM 200908Z 2009/2106 VRB03KT P6SM SCT012 BKN070
      TEMPO 2009/2013 1SM BR SCT001 BKN012 BKN070
     FM201800 VRB03KT P6SM SCT100 BKN200
     FM202100 VRB03KT P6SM -RA BKN050 OVC080
     FM210200 VRB03KT P6SM SCT050 BKN080=

USA.gov is the U.S. government's official web portal to all federal, state and local government web resources and services.